createdAt,value
2022-12-08T00:01:03.830Z,0.86
2022-12-08T00:03:30.685Z,0.87
2022-12-08T00:06:12.720Z,0.88
2022-12-08T00:08:54.768Z,0.83
2022-12-08T00:11:21.469Z,0.72
2022-12-08T00:13:48.122Z,0.73
2022-12-08T00:16:14.905Z,0.77
2022-12-08T00:18:41.637Z,0.77
2022-12-08T00:21:08.321Z,0.79
2022-12-08T00:23:35.009Z,0.79
2022-12-08T00:26:03.890Z,0.77
2022-12-08T00:28:31.763Z,0.81
2022-12-08T00:30:58.413Z,0.83
2022-12-08T00:33:25.444Z,0.86
2022-12-08T00:35:52.511Z,0.81
2022-12-08T00:38:19.182Z,0.73
2022-12-08T00:40:46.968Z,0.75
2022-12-08T00:43:14.284Z,0.79
2022-12-08T00:45:41.063Z,0.71
2022-12-08T00:48:08.142Z,0.60
2022-12-08T00:50:34.902Z,0.60
2022-12-08T00:53:01.578Z,0.69
2022-12-08T00:55:28.271Z,0.71
2022-12-08T00:57:54.985Z,0.62
2022-12-08T01:00:21.802Z,0.66
2022-12-08T01:02:48.599Z,0.69
2022-12-08T01:05:15.449Z,0.48
2022-12-08T01:07:42.258Z,0.47
2022-12-08T01:10:09.425Z,0.49
2022-12-08T01:12:36.146Z,0.46
2022-12-08T01:15:03.125Z,0.46
2022-12-08T01:17:29.812Z,0.52
2022-12-08T01:19:56.533Z,0.53
2022-12-08T01:22:23.133Z,0.51
2022-12-08T01:24:49.757Z,0.46
2022-12-08T01:27:16.728Z,0.39
2022-12-08T01:29:43.387Z,0.34
2022-12-08T01:32:10.051Z,0.31
2022-12-08T01:34:36.738Z,0.22
2022-12-08T01:37:03.471Z,0.22
2022-12-08T01:39:30.725Z,0.19
2022-12-08T01:41:57.390Z,0.16
2022-12-08T01:44:24.035Z,0.02
2022-12-08T01:46:53.074Z,0.05
2022-12-08T01:49:25.712Z,0.03
2022-12-08T01:52:02.965Z,0.02
2022-12-08T01:54:34.640Z,0.00
2022-12-08T01:57:08.221Z,-0.27
2022-12-08T01:59:39.673Z,-0.19
2022-12-08T02:02:06.459Z,-0.18
2022-12-08T02:04:33.226Z,-0.21
2022-12-08T02:07:04.930Z,-0.47
2022-12-08T02:09:36.146Z,-0.40
2022-12-08T02:12:03.059Z,-0.37
2022-12-08T02:14:29.875Z,-0.38
2022-12-08T02:17:10.914Z,-0.45
2022-12-08T02:20:09.572Z,-0.42
2022-12-08T02:22:42.930Z,-0.40
2022-12-08T02:25:16.503Z,-0.40
2022-12-08T02:27:49.327Z,-0.41
2022-12-08T02:30:22.532Z,-0.43
2022-12-08T02:33:04.417Z,-0.45
2022-12-08T02:35:46.336Z,-0.47
2022-12-08T02:38:43.482Z,-0.49
2022-12-08T02:41:26.360Z,-0.43
2022-12-08T02:44:01.174Z,-0.40
2022-12-08T02:46:33.258Z,-0.40
2022-12-08T02:49:00.737Z,-0.41
2022-12-08T02:51:27.482Z,-0.44
2022-12-08T02:53:58.586Z,-0.41
2022-12-08T02:56:37.547Z,-0.35
2022-12-08T02:59:26.010Z,-0.43
2022-12-08T03:02:13.632Z,-0.57
2022-12-08T03:05:11.096Z,-0.43
2022-12-08T03:07:48.917Z,-0.39
2022-12-08T03:10:23.528Z,-0.38
2022-12-08T03:12:58.898Z,-0.38
2022-12-08T03:15:25.924Z,-0.50
2022-12-08T03:17:56.985Z,-0.53
2022-12-08T03:20:26.183Z,-0.50
2022-12-08T03:22:56.377Z,-0.43
2022-12-08T03:25:26.281Z,-0.49
2022-12-08T03:27:53.887Z,-0.47
2022-12-08T03:30:20.646Z,-0.49
2022-12-08T03:32:50.481Z,-0.53
2022-12-08T03:35:21.954Z,-0.47
2022-12-08T03:37:48.619Z,-0.44
2022-12-08T03:40:20.163Z,-0.42
2022-12-08T03:42:46.950Z,-0.40
2022-12-08T03:45:13.646Z,-0.34
2022-12-08T03:47:40.296Z,-0.31
2022-12-08T03:50:07.561Z,-0.42
2022-12-08T03:52:34.227Z,-0.47
2022-12-08T03:55:00.859Z,-0.41
2022-12-08T03:57:27.510Z,-0.40
2022-12-08T03:59:54.124Z,-0.38
2022-12-08T04:02:20.845Z,-0.38
2022-12-08T04:04:47.728Z,-0.43
2022-12-08T04:07:14.415Z,-0.46
2022-12-08T04:09:42.783Z,-0.38
2022-12-08T04:12:09.724Z,-0.39
2022-12-08T04:14:36.595Z,-0.44
2022-12-08T04:17:03.301Z,-0.47
2022-12-08T04:19:32.081Z,-0.43
2022-12-08T04:21:58.797Z,-0.44
2022-12-08T04:24:25.490Z,-0.46
2022-12-08T04:26:52.238Z,-0.52
2022-12-08T04:29:19.019Z,-0.54
2022-12-08T04:31:45.787Z,-0.58
2022-12-08T04:34:12.552Z,-0.56
2022-12-08T04:36:39.188Z,-0.59
2022-12-08T04:39:06.288Z,-0.62
2022-12-08T04:41:33.231Z,-0.58
2022-12-08T04:43:59.896Z,-0.61
2022-12-08T04:46:26.573Z,-0.61
2022-12-08T04:48:53.221Z,-0.48
2022-12-08T04:51:20.754Z,-0.43
2022-12-08T04:53:47.827Z,-0.38
2022-12-08T04:56:17.783Z,-0.39
2022-12-08T04:58:45.291Z,-0.47
2022-12-08T05:01:12.200Z,-0.50
2022-12-08T05:03:39.266Z,-0.44
2022-12-08T05:06:06.239Z,-0.41
2022-12-08T05:08:33.403Z,-0.41
2022-12-08T05:11:10.092Z,-0.42
2022-12-08T05:13:36.820Z,-0.42
2022-12-08T05:16:09.466Z,-0.37
2022-12-08T05:18:37.425Z,-0.34
2022-12-08T05:21:04.946Z,-0.29
2022-12-08T05:23:32.023Z,-0.31
2022-12-08T05:25:58.836Z,-0.31
2022-12-08T05:28:41.216Z,-0.34
2022-12-08T05:31:09.226Z,-0.39
2022-12-08T05:33:35.981Z,-0.38
2022-12-08T05:36:02.682Z,-0.42
2022-12-08T05:38:29.564Z,-0.53
2022-12-08T05:40:56.253Z,-0.47
2022-12-08T05:43:22.905Z,-0.52
2022-12-08T05:45:50.163Z,-0.61
2022-12-08T05:48:16.918Z,-0.55
2022-12-08T05:50:51.986Z,-0.70
2022-12-08T05:53:20.373Z,-0.65
2022-12-08T05:55:47.519Z,-0.63
2022-12-08T05:58:17.496Z,-0.61
2022-12-08T06:00:45.324Z,-0.69
2022-12-08T06:03:14.647Z,-0.88
2022-12-08T06:05:43.026Z,-0.83
2022-12-08T06:08:10.251Z,-0.79
2022-12-08T06:10:39.965Z,-0.80
2022-12-08T06:13:06.695Z,-0.79
2022-12-08T06:15:35.689Z,-0.79
2022-12-08T06:18:02.381Z,-0.82
2022-12-08T06:20:29.063Z,-0.87
2022-12-08T06:22:56.482Z,-0.91
2022-12-08T06:25:23.517Z,-0.94
2022-12-08T06:27:50.462Z,-0.88
2022-12-08T06:30:17.831Z,-0.88
2022-12-08T06:32:44.753Z,-0.98
2022-12-08T06:35:11.436Z,-1.13
2022-12-08T06:37:38.142Z,-1.05
2022-12-08T06:40:05.572Z,-1.00
2022-12-08T06:42:43.655Z,-0.98
2022-12-08T06:45:16.193Z,-1.08
2022-12-08T06:47:43.273Z,-1.08
2022-12-08T06:50:13.528Z,-1.10
2022-12-08T06:53:00.790Z,-1.09
2022-12-08T06:56:01.303Z,-1.15
2022-12-08T06:58:55.275Z,-1.21
2022-12-08T07:01:24.579Z,-1.08
2022-12-08T07:03:51.358Z,-1.13
2022-12-08T07:06:24.365Z,-1.03
2022-12-08T07:08:51.801Z,-1.01
2022-12-08T07:11:21.866Z,-1.07
2022-12-08T07:13:50.285Z,-1.00
2022-12-08T07:16:16.988Z,-0.98
2022-12-08T07:18:44.238Z,-1.02
2022-12-08T07:21:14.869Z,-1.11
2022-12-08T07:23:42.579Z,-1.02
2022-12-08T07:26:12.030Z,-1.03
2022-12-08T07:28:40.525Z,-0.98
2022-12-08T07:31:08.462Z,-0.95
2022-12-08T07:33:36.178Z,-0.90
2022-12-08T07:36:06.521Z,-0.90
2022-12-08T07:38:33.682Z,-0.78
2022-12-08T07:41:00.764Z,-0.57
2022-12-08T07:43:27.459Z,-0.53
2022-12-08T07:45:54.287Z,-0.60
2022-12-08T07:48:20.977Z,-0.62
2022-12-08T07:50:47.934Z,-0.37
2022-12-08T07:53:15.165Z,-0.30
2022-12-08T07:55:43.670Z,-0.23
2022-12-08T07:58:11.578Z,0.02
2022-12-08T08:00:38.631Z,-0.04
2022-12-08T08:03:06.299Z,-0.04
2022-12-08T08:05:33.123Z,0.20
2022-12-08T08:07:59.795Z,0.24
2022-12-08T08:10:26.766Z,0.30
2022-12-08T08:12:53.530Z,0.19
2022-12-08T08:15:21.318Z,0.08
2022-12-08T08:17:51.554Z,-0.01
2022-12-08T08:20:19.324Z,-0.08
2022-12-08T08:22:47.893Z,0.01
2022-12-08T08:25:15.647Z,0.15
2022-12-08T08:27:42.705Z,0.26
2022-12-08T08:30:16.598Z,0.39
2022-12-08T08:32:46.811Z,0.56
2022-12-08T08:35:13.518Z,0.81
2022-12-08T08:37:43.149Z,0.99
2022-12-08T08:40:13.855Z,1.02
2022-12-08T08:42:40.730Z,1.03
2022-12-08T08:45:07.922Z,0.83
2022-12-08T08:47:34.607Z,0.82
2022-12-08T08:50:01.228Z,0.68
2022-12-08T08:52:27.938Z,0.71
2022-12-08T08:54:54.614Z,0.70
2022-12-08T08:57:25.710Z,0.90
2022-12-08T08:59:53.494Z,1.05
2022-12-08T09:02:21.284Z,1.28
2022-12-08T09:04:48.435Z,1.37
2022-12-08T09:07:16.107Z,1.53
2022-12-08T09:09:43.037Z,1.63
2022-12-08T09:12:10.509Z,1.84
2022-12-08T09:14:37.346Z,2.26
2022-12-08T09:17:04.551Z,2.22
2022-12-08T09:19:31.416Z,2.34
2022-12-08T09:21:58.107Z,2.63
2022-12-08T09:24:24.783Z,2.88
2022-12-08T09:26:51.525Z,2.94
2022-12-08T09:29:18.262Z,3.02
2022-12-08T09:31:45.084Z,3.20
2022-12-08T09:34:12.412Z,3.57
2022-12-08T09:36:39.827Z,4.34
2022-12-08T09:39:06.902Z,4.76
2022-12-08T09:41:40.635Z,5.13
2022-12-08T09:44:39.267Z,5.57
2022-12-08T09:47:13.490Z,5.74
2022-12-08T09:49:45.858Z,6.26
2022-12-08T09:52:23.103Z,6.32
2022-12-08T09:54:49.934Z,6.45
2022-12-08T09:57:20.848Z,6.64
2022-12-08T09:59:54.867Z,6.87
2022-12-08T10:02:24.512Z,6.81
2022-12-08T10:04:51.482Z,7.13
2022-12-08T10:07:27.550Z,6.99
2022-12-08T10:10:18.779Z,7.35
2022-12-08T10:12:46.417Z,7.23
2022-12-08T10:15:42.416Z,7.66
2022-12-08T10:18:29.059Z,7.94
2022-12-08T10:21:05.365Z,8.26
2022-12-08T10:23:34.997Z,7.91
2022-12-08T10:26:07.048Z,7.33
2022-12-08T10:28:37.633Z,6.96
2022-12-08T10:31:15.655Z,6.51
2022-12-08T10:33:43.712Z,6.30
2022-12-08T10:36:10.717Z,6.12
2022-12-08T10:38:39.133Z,5.93
2022-12-08T10:41:14.620Z,6.00
2022-12-08T10:43:46.416Z,5.71
2022-12-08T10:46:18.496Z,5.82
2022-12-08T10:48:56.242Z,5.80
2022-12-08T10:51:27.385Z,6.33
2022-12-08T10:53:54.180Z,6.17
2022-12-08T10:56:29.177Z,6.31
2022-12-08T10:59:14.921Z,6.18
2022-12-08T11:01:45.290Z,6.26
2022-12-08T11:04:17.477Z,6.25
2022-12-08T11:06:45.422Z,6.54
2022-12-08T11:09:31.188Z,6.47
2022-12-08T11:12:07.942Z,6.39
2022-12-08T11:14:55.074Z,6.50
2022-12-08T11:17:21.749Z,6.50
2022-12-08T11:19:57.201Z,7.03
2022-12-08T11:22:43.835Z,7.03
2022-12-08T11:25:15.972Z,6.66
2022-12-08T11:27:45.742Z,6.32
2022-12-08T11:30:15.690Z,6.17
2022-12-08T11:32:44.931Z,5.98
2022-12-08T11:35:21.535Z,5.80
2022-12-08T11:37:48.577Z,5.72
2022-12-08T11:40:34.377Z,5.41
2022-12-08T11:43:19.527Z,5.56
2022-12-08T11:45:49.448Z,5.33
2022-12-08T11:48:23.064Z,5.27
2022-12-08T11:50:56.296Z,5.39
2022-12-08T11:53:43.581Z,5.38
2022-12-08T11:56:22.604Z,5.07
2022-12-08T11:58:56.007Z,5.33
2022-12-08T12:01:25.186Z,5.34
2022-12-08T12:04:12.678Z,5.44
2022-12-08T12:07:04.791Z,5.26
2022-12-08T12:09:58.063Z,5.16
2022-12-08T12:12:52.190Z,5.13
2022-12-08T12:15:35.218Z,5.14
2022-12-08T12:18:16.549Z,5.09
2022-12-08T12:21:01.393Z,4.94
2022-12-08T12:23:29.055Z,4.97
2022-12-08T12:26:01.159Z,4.90
2022-12-08T12:28:34.257Z,5.05
2022-12-08T12:31:07.157Z,5.31
2022-12-08T12:33:35.459Z,5.22
2022-12-08T12:36:05.405Z,5.08
2022-12-08T12:38:54.945Z,5.29
2022-12-08T12:41:28.643Z,5.38
2022-12-08T12:44:24.092Z,5.45
2022-12-08T12:46:50.716Z,5.47
2022-12-08T12:49:49.693Z,5.46
2022-12-08T12:52:16.304Z,5.47
2022-12-08T12:55:03.392Z,5.37
2022-12-08T12:57:39.680Z,5.46
2022-12-08T13:00:09.713Z,5.52
2022-12-08T13:02:36.564Z,5.32
2022-12-08T13:05:16.797Z,5.37
2022-12-08T13:08:03.348Z,5.27
2022-12-08T13:10:40.612Z,5.48
2022-12-08T13:13:08.357Z,5.53
2022-12-08T13:15:38.641Z,5.62
2022-12-08T13:18:07.711Z,5.69
2022-12-08T13:20:42.369Z,5.73
2022-12-08T13:23:25.220Z,5.71
2022-12-08T13:25:53.784Z,5.91
2022-12-08T13:28:27.449Z,6.12
2022-12-08T13:31:01.915Z,6.15
2022-12-08T13:33:32.857Z,6.31
2022-12-08T13:36:23.730Z,6.56
2022-12-08T13:38:56.018Z,6.85
2022-12-08T13:41:29.614Z,7.24
2022-12-08T13:44:39.161Z,7.77
2022-12-08T13:58:31.913Z,10.67
2022-12-08T14:01:22.681Z,10.85
2022-12-08T14:04:20.338Z,10.91
2022-12-08T14:06:38.205Z,11.82
2022-12-08T14:09:11.552Z,11.24
2022-12-08T14:11:41.433Z,11.27
2022-12-08T14:14:27.200Z,10.73
2022-12-08T14:17:06.815Z,11.22
2022-12-08T14:19:35.262Z,10.58
2022-12-08T14:22:13.051Z,10.32
2022-12-08T14:24:40.737Z,10.75
2022-12-08T14:27:12.798Z,10.09
2022-12-08T14:29:50.509Z,9.65
2022-12-08T14:32:32.755Z,9.21
2022-12-08T14:35:11.422Z,9.05
2022-12-08T14:37:42.298Z,8.81
2022-12-08T14:40:25.667Z,8.53
2022-12-08T14:42:54.246Z,8.22
2022-12-08T14:45:21.545Z,7.70
2022-12-08T14:47:52.367Z,7.11
2022-12-08T14:50:49.575Z,6.44
2022-12-08T14:53:18.136Z,6.06
2022-12-08T14:55:47.803Z,5.57
2022-12-08T14:58:22.187Z,5.19
2022-12-08T15:00:52.201Z,4.92
2022-12-08T15:03:22.207Z,4.71
2022-12-08T15:05:52.857Z,4.52
2022-12-08T15:08:19.591Z,4.40
2022-12-08T15:10:48.277Z,4.22
2022-12-08T15:13:16.444Z,4.09
2022-12-08T15:15:58.383Z,3.98
2022-12-08T15:18:40.768Z,3.78
2022-12-08T15:21:09.987Z,3.69
2022-12-08T15:23:45.032Z,3.50
2022-12-08T15:26:22.681Z,3.42
2022-12-08T15:28:49.632Z,3.26
2022-12-08T15:31:18.476Z,3.15
2022-12-08T15:33:45.539Z,3.04
2022-12-08T15:36:12.264Z,2.78
2022-12-08T15:38:39.409Z,2.77
2022-12-08T15:41:10.143Z,2.62
2022-12-08T15:43:39.882Z,2.64
2022-12-08T15:46:06.659Z,2.59
2022-12-08T15:48:33.337Z,2.49
2022-12-08T15:51:00.222Z,2.30
2022-12-08T15:53:26.919Z,2.28
2022-12-08T15:58:57.891Z,2.19
2022-12-08T16:01:26.631Z,2.11
2022-12-08T16:07:19.792Z,2.00
2022-12-08T16:09:36.621Z,1.92
2022-12-08T16:12:18.924Z,1.87
2022-12-08T16:17:33.660Z,1.67
2022-12-08T16:20:01.136Z,1.49
2022-12-08T16:25:20.328Z,1.48
2022-12-08T16:30:36.802Z,1.39
2022-12-08T16:33:04.133Z,1.39
2022-12-08T16:35:31.163Z,1.29
2022-12-08T16:37:58.323Z,1.03
2022-12-08T16:40:25.047Z,0.99
2022-12-08T16:42:51.761Z,1.00
2022-12-08T16:45:21.627Z,0.97
2022-12-08T16:47:49.458Z,0.90
2022-12-08T16:50:20.272Z,0.88
2022-12-08T16:52:48.888Z,0.83
2022-12-08T16:55:19.334Z,0.76
2022-12-08T16:57:47.339Z,0.69
2022-12-08T17:00:18.736Z,0.65
2022-12-08T17:02:45.617Z,0.59
2022-12-08T17:05:15.305Z,0.54
2022-12-08T17:07:43.483Z,0.33
2022-12-08T17:10:12.724Z,0.34
2022-12-08T17:12:39.524Z,0.34
2022-12-08T17:15:08.772Z,0.31
2022-12-08T17:17:36.330Z,0.27
2022-12-08T17:20:05.820Z,0.04
2022-12-08T17:22:35.012Z,-0.04
2022-12-08T17:25:02.793Z,-0.03
2022-12-08T17:27:29.708Z,-0.12
2022-12-08T17:29:56.503Z,-0.07
2022-12-08T17:32:23.703Z,-0.05
2022-12-08T17:34:50.622Z,-0.03
2022-12-08T17:37:17.926Z,-0.02
2022-12-08T17:39:44.721Z,-0.03
2022-12-08T17:42:11.542Z,-0.03
2022-12-08T17:44:38.231Z,-0.06
2022-12-08T17:47:05.563Z,-0.31
2022-12-08T17:49:34.031Z,-0.34
2022-12-08T17:52:04.770Z,-0.39
2022-12-08T17:54:31.527Z,-0.56
2022-12-08T17:56:59.096Z,-0.46
2022-12-08T17:59:28.082Z,-0.41
2022-12-08T18:01:55.792Z,-0.40
2022-12-08T18:04:23.514Z,-0.40
2022-12-08T18:06:50.400Z,-0.47
2022-12-08T18:09:17.365Z,-0.49
2022-12-08T18:11:44.615Z,-0.52
2022-12-08T18:14:12.410Z,-0.61
2022-12-08T18:16:42.417Z,-0.69
2022-12-08T18:19:10.839Z,-0.67
2022-12-08T18:21:38.015Z,-0.61
2022-12-08T18:24:05.517Z,-0.63
2022-12-08T18:26:32.886Z,-0.71
2022-12-08T18:29:00.080Z,-0.71
2022-12-08T18:31:27.123Z,-0.65
2022-12-08T18:33:54.102Z,-0.63
2022-12-08T18:36:24.544Z,-0.68
2022-12-08T18:38:52.090Z,-0.68
2022-12-08T18:41:23.469Z,-0.81
2022-12-08T18:43:50.642Z,-0.89
2022-12-08T18:46:17.444Z,-0.94
2022-12-08T18:48:49.236Z,-1.00
2022-12-08T18:51:19.480Z,-0.93
2022-12-08T18:53:46.567Z,-1.01
2022-12-08T18:56:29.885Z,-1.07
2022-12-08T18:59:03.839Z,-0.96
2022-12-08T19:01:32.764Z,-1.06
2022-12-08T19:06:48.336Z,-1.05
2022-12-08T19:09:15.890Z,-1.15
2022-12-08T19:11:42.950Z,-1.10
2022-12-08T19:14:10.683Z,-1.10
2022-12-08T19:16:37.722Z,-1.09
2022-12-08T19:19:05.031Z,-1.07
2022-12-08T19:21:32.585Z,-1.07
2022-12-08T19:24:00.022Z,-1.31
2022-12-08T19:26:28.611Z,-1.30
2022-12-08T19:28:56.205Z,-1.27
2022-12-08T19:31:22.982Z,-1.35
2022-12-08T19:33:50.098Z,-1.25
2022-12-08T19:36:20.219Z,-1.24
2022-12-08T19:39:03.021Z,-1.22
2022-12-08T19:41:45.555Z,-1.39
2022-12-08T19:44:38.363Z,-1.31
2022-12-08T19:47:05.566Z,-1.41
2022-12-08T19:49:32.786Z,-1.35
2022-12-08T19:51:59.979Z,-1.33
2022-12-08T19:54:28.546Z,-1.32
2022-12-08T19:56:55.295Z,-1.33
2022-12-08T19:59:22.764Z,-1.48
2022-12-08T20:01:50.096Z,-1.66
2022-12-08T20:04:17.894Z,-1.56
2022-12-08T20:06:45.604Z,-1.61
2022-12-08T20:09:13.806Z,-1.66
2022-12-08T20:11:41.368Z,-1.76
2022-12-08T20:14:08.102Z,-1.69
2022-12-08T20:16:35.429Z,-1.68
2022-12-08T20:19:02.650Z,-1.88
2022-12-08T20:21:29.758Z,-1.71
2022-12-08T20:23:56.592Z,-1.68
2022-12-08T20:26:23.846Z,-1.80
2022-12-08T20:28:51.166Z,-1.77
2022-12-08T20:31:21.639Z,-1.76
2022-12-08T20:33:48.672Z,-1.81
2022-12-08T20:36:18.767Z,-1.77
2022-12-08T20:38:46.792Z,-1.75
2022-12-08T20:41:16.117Z,-1.77
2022-12-08T20:43:45.735Z,-1.77
2022-12-08T20:46:14.886Z,-1.74
2022-12-08T20:48:43.570Z,-1.83
2022-12-08T20:51:15.605Z,-2.01
2022-12-08T20:53:42.775Z,-1.99
2022-12-08T20:56:15.697Z,-2.14
2022-12-08T20:58:42.886Z,-2.03
2022-12-08T21:01:12.388Z,-2.03
2022-12-08T21:03:39.760Z,-1.94
2022-12-08T21:06:07.482Z,-1.93
2022-12-08T21:08:35.126Z,-1.91
2022-12-08T21:11:02.309Z,-1.92
2022-12-08T21:13:29.148Z,-1.91
2022-12-08T21:15:56.220Z,-1.93
2022-12-08T21:18:23.631Z,-2.13
2022-12-08T21:20:51.582Z,-2.10
2022-12-08T21:23:18.866Z,-2.09
2022-12-08T21:25:47.371Z,-2.22
2022-12-08T21:28:14.203Z,-2.23
2022-12-08T21:30:41.815Z,-2.25
2022-12-08T21:33:09.243Z,-2.18
2022-12-08T21:35:36.061Z,-2.24
2022-12-08T21:38:06.108Z,-2.23
2022-12-08T21:40:35.211Z,-2.14
2022-12-08T21:43:03.848Z,-2.11
2022-12-08T21:45:33.262Z,-2.12
2022-12-08T21:48:03.178Z,-2.24
2022-12-08T21:50:32.739Z,-2.25
2022-12-08T21:53:00.443Z,-2.40
2022-12-08T21:55:27.332Z,-2.47
2022-12-08T21:57:54.125Z,-2.46
2022-12-08T22:00:21.636Z,-2.37
2022-12-08T22:02:48.887Z,-2.44
2022-12-08T22:05:15.837Z,-2.50
2022-12-08T22:07:42.712Z,-2.45
2022-12-08T22:10:10.814Z,-2.37
2022-12-08T22:12:38.171Z,-2.33
2022-12-08T22:15:07.185Z,-2.27
2022-12-08T22:17:39.441Z,-2.34
2022-12-08T22:20:08.660Z,-2.54
2022-12-08T22:22:35.924Z,-2.55
2022-12-08T22:25:04.477Z,-2.63
2022-12-08T22:27:33.053Z,-2.70
2022-12-08T22:29:59.805Z,-2.60
2022-12-08T22:32:28.874Z,-2.54
2022-12-08T22:34:56.277Z,-2.47
2022-12-08T22:37:22.939Z,-2.45
2022-12-08T22:39:49.573Z,-2.42
2022-12-08T22:42:16.313Z,-2.40
2022-12-08T22:44:42.938Z,-2.38
2022-12-08T22:47:09.676Z,-2.40
2022-12-08T22:49:39.823Z,-2.39
2022-12-08T22:52:06.701Z,-2.41
2022-12-08T22:54:33.359Z,-2.41
2022-12-08T22:57:00.137Z,-2.61
2022-12-08T22:59:33.295Z,-2.72
2022-12-08T23:02:00.327Z,-2.59
2022-12-08T23:04:27.412Z,-2.57
2022-12-08T23:06:54.185Z,-2.69
2022-12-08T23:09:21.397Z,-2.69
2022-12-08T23:11:48.080Z,-2.60
2022-12-08T23:14:14.833Z,-2.56
2022-12-08T23:16:41.646Z,-2.78
2022-12-08T23:19:08.640Z,-2.81
2022-12-08T23:21:35.559Z,-2.69
2022-12-08T23:24:02.574Z,-2.66
2022-12-08T23:26:32.115Z,-2.66
2022-12-08T23:28:59.723Z,-2.64
2022-12-08T23:31:27.413Z,-2.66
2022-12-08T23:33:54.727Z,-2.75
2022-12-08T23:36:25.036Z,-2.91
2022-12-08T23:38:52.495Z,-2.93
2022-12-08T23:41:19.452Z,-2.90
2022-12-08T23:43:48.414Z,-3.03
2022-12-08T23:46:17.298Z,-2.90
2022-12-08T23:48:44.248Z,-2.84
2022-12-08T23:51:12.097Z,-2.83
2022-12-08T23:53:39.092Z,-2.84
2022-12-08T23:56:08.298Z,-2.85
2022-12-08T23:58:36.124Z,-2.90
